sensor_id;sensor_type;location;lat;lon;timestamp;P1;durP1;ratioP1;P2;durP2;ratioP2
14203;SDS011;7185;51.854;6.622;2022-11-12T00:00:03;11.20;;;6.30;;
14203;SDS011;7185;51.854;6.622;2022-11-12T00:02:35;13.02;;;6.65;;
14203;SDS011;7185;51.854;6.622;2022-11-12T00:05:07;11.48;;;6.68;;
14203;SDS011;7185;51.854;6.622;2022-11-12T00:07:38;12.98;;;5.85;;
14203;SDS011;7185;51.854;6.622;2022-11-12T00:10:11;13.35;;;6.07;;
14203;SDS011;7185;51.854;6.622;2022-11-12T00:12:42;14.00;;;6.40;;
14203;SDS011;7185;51.854;6.622;2022-11-12T00:15:14;10.80;;;6.15;;
14203;SDS011;7185;51.854;6.622;2022-11-12T00:17:45;13.60;;;6.78;;
14203;SDS011;7185;51.854;6.622;2022-11-12T00:20:17;12.60;;;5.90;;
14203;SDS011;7185;51.854;6.622;2022-11-12T00:22:51;12.32;;;6.57;;
14203;SDS011;7185;51.854;6.622;2022-11-12T00:25:24;11.80;;;6.05;;
14203;SDS011;7185;51.854;6.622;2022-11-12T00:27:59;17.65;;;7.00;;
14203;SDS011;7185;51.854;6.622;2022-11-12T00:30:30;16.65;;;7.03;;
14203;SDS011;7185;51.854;6.622;2022-11-12T00:33:02;13.98;;;6.80;;
14203;SDS011;7185;51.854;6.622;2022-11-12T00:35:37;14.27;;;7.00;;
14203;SDS011;7185;51.854;6.622;2022-11-12T00:38:08;13.50;;;6.00;;
14203;SDS011;7185;51.854;6.622;2022-11-12T00:40:41;13.02;;;6.72;;
14203;SDS011;7185;51.854;6.622;2022-11-12T00:43:12;10.77;;;6.43;;
14203;SDS011;7185;51.854;6.622;2022-11-12T00:45:44;14.30;;;6.43;;
14203;SDS011;7185;51.854;6.622;2022-11-12T00:48:15;13.52;;;6.38;;
14203;SDS011;7185;51.854;6.622;2022-11-12T00:50:46;13.18;;;6.85;;
14203;SDS011;7185;51.854;6.622;2022-11-12T00:53:18;12.73;;;7.07;;
14203;SDS011;7185;51.854;6.622;2022-11-12T00:55:51;13.75;;;6.30;;
14203;SDS011;7185;51.854;6.622;2022-11-12T00:58:22;13.93;;;6.53;;
14203;SDS011;7185;51.854;6.622;2022-11-12T01:00:53;11.85;;;6.80;;
14203;SDS011;7185;51.854;6.622;2022-11-12T01:03:26;13.82;;;6.70;;
14203;SDS011;7185;51.854;6.622;2022-11-12T01:06:00;11.00;;;6.00;;
14203;SDS011;7185;51.854;6.622;2022-11-12T01:08:31;15.85;;;6.85;;
14203;SDS011;7185;51.854;6.622;2022-11-12T01:11:05;13.35;;;6.60;;
14203;SDS011;7185;51.854;6.622;2022-11-12T01:13:37;13.27;;;6.45;;
14203;SDS011;7185;51.854;6.622;2022-11-12T01:16:11;13.65;;;6.45;;
14203;SDS011;7185;51.854;6.622;2022-11-12T01:18:43;14.30;;;6.32;;
14203;SDS011;7185;51.854;6.622;2022-11-12T01:21:14;13.63;;;6.18;;
14203;SDS011;7185;51.854;6.622;2022-11-12T01:23:46;11.73;;;6.05;;
14203;SDS011;7185;51.854;6.622;2022-11-12T01:26:22;10.77;;;5.70;;
14203;SDS011;7185;51.854;6.622;2022-11-12T01:28:54;13.25;;;6.60;;
14203;SDS011;7185;51.854;6.622;2022-11-12T01:31:26;11.60;;;5.75;;
14203;SDS011;7185;51.854;6.622;2022-11-12T01:33:59;12.63;;;6.10;;
14203;SDS011;7185;51.854;6.622;2022-11-12T01:36:32;10.82;;;6.15;;
14203;SDS011;7185;51.854;6.622;2022-11-12T01:39:04;9.98;;;5.57;;
14203;SDS011;7185;51.854;6.622;2022-11-12T01:41:37;11.68;;;5.85;;
14203;SDS011;7185;51.854;6.622;2022-11-12T01:44:13;10.13;;;5.75;;
14203;SDS011;7185;51.854;6.622;2022-11-12T01:46:54;11.32;;;5.88;;
14203;SDS011;7185;51.854;6.622;2022-11-12T01:49:28;10.75;;;5.97;;
14203;SDS011;7185;51.854;6.622;2022-11-12T01:52:05;8.75;;;5.53;;
14203;SDS011;7185;51.854;6.622;2022-11-12T01:54:38;10.77;;;5.45;;
14203;SDS011;7185;51.854;6.622;2022-11-12T01:57:11;9.35;;;5.70;;
14203;SDS011;7185;51.854;6.622;2022-11-12T01:59:43;11.35;;;5.75;;
14203;SDS011;7185;51.854;6.622;2022-11-12T02:02:15;10.68;;;5.90;;
14203;SDS011;7185;51.854;6.622;2022-11-12T02:04:46;12.85;;;6.38;;
14203;SDS011;7185;51.854;6.622;2022-11-12T02:07:18;9.57;;;5.45;;
14203;SDS011;7185;51.854;6.622;2022-11-12T02:09:52;11.90;;;5.28;;
14203;SDS011;7185;51.854;6.622;2022-11-12T02:12:25;10.95;;;5.80;;
14203;SDS011;7185;51.854;6.622;2022-11-12T02:15:14;9.95;;;5.35;;
14203;SDS011;7185;51.854;6.622;2022-11-12T02:17:46;11.07;;;5.78;;
14203;SDS011;7185;51.854;6.622;2022-11-12T02:20:17;9.88;;;6.03;;
14203;SDS011;7185;51.854;6.622;2022-11-12T02:22:50;10.13;;;5.35;;
14203;SDS011;7185;51.854;6.622;2022-11-12T02:25:22;8.40;;;5.35;;
14203;SDS011;7185;51.854;6.622;2022-11-12T02:27:55;11.82;;;5.47;;
14203;SDS011;7185;51.854;6.622;2022-11-12T02:30:30;11.73;;;5.63;;
14203;SDS011;7185;51.854;6.622;2022-11-12T02:33:01;10.10;;;5.80;;
14203;SDS011;7185;51.854;6.622;2022-11-12T02:35:33;8.73;;;5.70;;
14203;SDS011;7185;51.854;6.622;2022-11-12T02:38:06;9.65;;;5.28;;
14203;SDS011;7185;51.854;6.622;2022-11-12T02:40:37;8.02;;;5.10;;
14203;SDS011;7185;51.854;6.622;2022-11-12T02:43:09;12.57;;;5.97;;
14203;SDS011;7185;51.854;6.622;2022-11-12T02:45:40;10.43;;;5.57;;
14203;SDS011;7185;51.854;6.622;2022-11-12T02:48:12;14.93;;;6.28;;
14203;SDS011;7185;51.854;6.622;2022-11-12T02:50:43;14.23;;;7.60;;
14203;SDS011;7185;51.854;6.622;2022-11-12T02:53:16;9.57;;;5.60;;
14203;SDS011;7185;51.854;6.622;2022-11-12T02:55:47;13.10;;;5.80;;
14203;SDS011;7185;51.854;6.622;2022-11-12T02:58:19;10.75;;;5.75;;
14203;SDS011;7185;51.854;6.622;2022-11-12T03:00:51;11.70;;;6.03;;
14203;SDS011;7185;51.854;6.622;2022-11-12T03:03:23;11.43;;;6.07;;
14203;SDS011;7185;51.854;6.622;2022-11-12T03:05:55;12.20;;;5.75;;
14203;SDS011;7185;51.854;6.622;2022-11-12T03:08:28;12.90;;;6.50;;
14203;SDS011;7185;51.854;6.622;2022-11-12T03:11:04;11.18;;;5.75;;
14203;SDS011;7185;51.854;6.622;2022-11-12T03:13:36;13.73;;;6.53;;
14203;SDS011;7185;51.854;6.622;2022-11-12T03:16:07;11.80;;;6.43;;
14203;SDS011;7185;51.854;6.622;2022-11-12T03:18:39;11.43;;;6.45;;
14203;SDS011;7185;51.854;6.622;2022-11-12T03:21:10;13.13;;;6.00;;
14203;SDS011;7185;51.854;6.622;2022-11-12T03:23:43;12.07;;;6.18;;
14203;SDS011;7185;51.854;6.622;2022-11-12T03:26:14;12.07;;;6.25;;
14203;SDS011;7185;51.854;6.622;2022-11-12T03:28:46;10.38;;;5.25;;
14203;SDS011;7185;51.854;6.622;2022-11-12T03:31:17;11.80;;;6.15;;
14203;SDS011;7185;51.854;6.622;2022-11-12T03:33:49;11.02;;;5.78;;
14203;SDS011;7185;51.854;6.622;2022-11-12T03:36:20;13.32;;;6.10;;
14203;SDS011;7185;51.854;6.622;2022-11-12T03:38:53;12.82;;;5.88;;
14203;SDS011;7185;51.854;6.622;2022-11-12T03:41:24;12.52;;;6.40;;
14203;SDS011;7185;51.854;6.622;2022-11-12T03:43:56;11.95;;;6.55;;
14203;SDS011;7185;51.854;6.622;2022-11-12T03:46:27;11.18;;;6.20;;
14203;SDS011;7185;51.854;6.622;2022-11-12T03:48:59;12.77;;;6.30;;
14203;SDS011;7185;51.854;6.622;2022-11-12T03:51:31;11.52;;;6.80;;
14203;SDS011;7185;51.854;6.622;2022-11-12T03:54:04;13.98;;;6.82;;
14203;SDS011;7185;51.854;6.622;2022-11-12T03:56:36;14.15;;;6.53;;
14203;SDS011;7185;51.854;6.622;2022-11-12T03:59:07;14.07;;;6.97;;
14203;SDS011;7185;51.854;6.622;2022-11-12T04:01:39;15.52;;;7.38;;
14203;SDS011;7185;51.854;6.622;2022-11-12T04:04:10;14.48;;;6.55;;
14203;SDS011;7185;51.854;6.622;2022-11-12T04:06:42;14.93;;;6.63;;
14203;SDS011;7185;51.854;6.622;2022-11-12T04:09:32;14.75;;;7.97;;
14203;SDS011;7185;51.854;6.622;2022-11-12T04:12:03;12.18;;;6.53;;
14203;SDS011;7185;51.854;6.622;2022-11-12T04:14:49;13.70;;;6.43;;
14203;SDS011;7185;51.854;6.622;2022-11-12T04:17:20;13.85;;;6.35;;
14203;SDS011;7185;51.854;6.622;2022-11-12T04:20:14;13.65;;;7.32;;
14203;SDS011;7185;51.854;6.622;2022-11-12T04:23:03;10.90;;;6.10;;
14203;SDS011;7185;51.854;6.622;2022-11-12T04:25:36;15.93;;;7.28;;
14203;SDS011;7185;51.854;6.622;2022-11-12T04:28:26;11.50;;;7.00;;
14203;SDS011;7185;51.854;6.622;2022-11-12T04:30:58;13.55;;;6.90;;
14203;SDS011;7185;51.854;6.622;2022-11-12T04:33:28;13.60;;;6.32;;
14203;SDS011;7185;51.854;6.622;2022-11-12T04:36:00;13.43;;;6.90;;
14203;SDS011;7185;51.854;6.622;2022-11-12T04:38:31;12.52;;;7.00;;
14203;SDS011;7185;51.854;6.622;2022-11-12T04:41:04;13.57;;;6.80;;
14203;SDS011;7185;51.854;6.622;2022-11-12T04:43:53;13.90;;;6.43;;
14203;SDS011;7185;51.854;6.622;2022-11-12T04:46:41;12.27;;;6.70;;
14203;SDS011;7185;51.854;6.622;2022-11-12T04:49:13;11.98;;;6.30;;
14203;SDS011;7185;51.854;6.622;2022-11-12T04:51:44;16.73;;;7.07;;
14203;SDS011;7185;51.854;6.622;2022-11-12T04:54:33;13.88;;;7.80;;
14203;SDS011;7185;51.854;6.622;2022-11-12T04:57:06;13.00;;;6.22;;
14203;SDS011;7185;51.854;6.622;2022-11-12T04:59:37;12.13;;;7.10;;
14203;SDS011;7185;51.854;6.622;2022-11-12T05:02:08;13.35;;;6.80;;
14203;SDS011;7185;51.854;6.622;2022-11-12T05:04:40;13.05;;;6.38;;
14203;SDS011;7185;51.854;6.622;2022-11-12T05:07:11;12.15;;;6.20;;
14203;SDS011;7185;51.854;6.622;2022-11-12T05:09:43;11.02;;;6.35;;
14203;SDS011;7185;51.854;6.622;2022-11-12T05:12:15;13.20;;;6.45;;
14203;SDS011;7185;51.854;6.622;2022-11-12T05:14:47;12.93;;;7.05;;
14203;SDS011;7185;51.854;6.622;2022-11-12T05:17:18;15.88;;;6.95;;
14203;SDS011;7185;51.854;6.622;2022-11-12T05:19:50;12.15;;;6.50;;
14203;SDS011;7185;51.854;6.622;2022-11-12T05:22:21;13.70;;;7.43;;
14203;SDS011;7185;51.854;6.622;2022-11-12T05:24:52;16.08;;;6.80;;
14203;SDS011;7185;51.854;6.622;2022-11-12T05:27:25;14.00;;;6.60;;
14203;SDS011;7185;51.854;6.622;2022-11-12T05:29:57;11.52;;;7.53;;
14203;SDS011;7185;51.854;6.622;2022-11-12T05:32:28;11.88;;;5.97;;
14203;SDS011;7185;51.854;6.622;2022-11-12T05:34:59;14.68;;;6.55;;
14203;SDS011;7185;51.854;6.622;2022-11-12T05:37:31;12.60;;;6.72;;
14203;SDS011;7185;51.854;6.622;2022-11-12T05:40:02;13.77;;;6.70;;
14203;SDS011;7185;51.854;6.622;2022-11-12T05:42:35;15.10;;;7.20;;
14203;SDS011;7185;51.854;6.622;2022-11-12T05:45:07;11.38;;;6.55;;
14203;SDS011;7185;51.854;6.622;2022-11-12T05:47:39;13.55;;;6.72;;
14203;SDS011;7185;51.854;6.622;2022-11-12T05:50:10;17.42;;;7.13;;
14203;SDS011;7185;51.854;6.622;2022-11-12T05:52:41;14.70;;;7.22;;
14203;SDS011;7185;51.854;6.622;2022-11-12T05:55:13;11.80;;;6.75;;
14203;SDS011;7185;51.854;6.622;2022-11-12T05:57:45;14.30;;;6.82;;
14203;SDS011;7185;51.854;6.622;2022-11-12T06:00:17;15.55;;;7.45;;
14203;SDS011;7185;51.854;6.622;2022-11-12T06:02:49;14.73;;;7.18;;
14203;SDS011;7185;51.854;6.622;2022-11-12T06:05:20;13.23;;;6.60;;
14203;SDS011;7185;51.854;6.622;2022-11-12T06:07:51;14.10;;;6.45;;
14203;SDS011;7185;51.854;6.622;2022-11-12T06:10:23;13.45;;;6.80;;
14203;SDS011;7185;51.854;6.622;2022-11-12T06:12:56;13.40;;;7.07;;
14203;SDS011;7185;51.854;6.622;2022-11-12T06:15:27;12.90;;;6.18;;
14203;SDS011;7185;51.854;6.622;2022-11-12T06:17:58;13.10;;;7.03;;
14203;SDS011;7185;51.854;6.622;2022-11-12T06:20:30;16.65;;;7.55;;
14203;SDS011;7185;51.854;6.622;2022-11-12T06:23:01;12.35;;;7.32;;
14203;SDS011;7185;51.854;6.622;2022-11-12T06:25:33;16.88;;;7.07;;
14203;SDS011;7185;51.854;6.622;2022-11-12T06:28:06;15.13;;;6.95;;
14203;SDS011;7185;51.854;6.622;2022-11-12T06:30:37;15.40;;;7.07;;
14203;SDS011;7185;51.854;6.622;2022-11-12T06:33:08;16.83;;;7.15;;
14203;SDS011;7185;51.854;6.622;2022-11-12T06:35:40;14.88;;;6.95;;
14203;SDS011;7185;51.854;6.622;2022-11-12T06:38:11;13.30;;;7.20;;
14203;SDS011;7185;51.854;6.622;2022-11-12T06:40:43;13.75;;;7.18;;
14203;SDS011;7185;51.854;6.622;2022-11-12T06:43:16;12.50;;;6.72;;
14203;SDS011;7185;51.854;6.622;2022-11-12T06:45:47;16.02;;;7.63;;
14203;SDS011;7185;51.854;6.622;2022-11-12T06:48:18;12.10;;;6.00;;
14203;SDS011;7185;51.854;6.622;2022-11-12T06:50:50;12.07;;;6.57;;
14203;SDS011;7185;51.854;6.622;2022-11-12T06:53:21;14.30;;;7.88;;
14203;SDS011;7185;51.854;6.622;2022-11-12T06:55:53;12.10;;;6.47;;
14203;SDS011;7185;51.854;6.622;2022-11-12T06:58:32;11.82;;;6.45;;
14203;SDS011;7185;51.854;6.622;2022-11-12T07:01:05;13.45;;;6.93;;
14203;SDS011;7185;51.854;6.622;2022-11-12T07:03:37;14.32;;;7.15;;
14203;SDS011;7185;51.854;6.622;2022-11-12T07:06:09;11.13;;;6.10;;
14203;SDS011;7185;51.854;6.622;2022-11-12T07:08:40;12.60;;;6.95;;
14203;SDS011;7185;51.854;6.622;2022-11-12T07:11:12;12.55;;;6.90;;
14203;SDS011;7185;51.854;6.622;2022-11-12T07:13:45;15.43;;;7.05;;
14203;SDS011;7185;51.854;6.622;2022-11-12T07:16:16;13.75;;;7.18;;
14203;SDS011;7185;51.854;6.622;2022-11-12T07:18:48;12.93;;;7.30;;
14203;SDS011;7185;51.854;6.622;2022-11-12T07:21:20;14.20;;;7.57;;
14203;SDS011;7185;51.854;6.622;2022-11-12T07:23:52;12.40;;;6.30;;
14203;SDS011;7185;51.854;6.622;2022-11-12T07:26:24;14.82;;;6.88;;
14203;SDS011;7185;51.854;6.622;2022-11-12T07:29:00;15.25;;;6.90;;
14203;SDS011;7185;51.854;6.622;2022-11-12T07:31:32;13.90;;;7.70;;
14203;SDS011;7185;51.854;6.622;2022-11-12T07:34:03;14.80;;;7.45;;
14203;SDS011;7185;51.854;6.622;2022-11-12T07:36:35;16.73;;;8.18;;
14203;SDS011;7185;51.854;6.622;2022-11-12T07:39:06;24.67;;;12.55;;
14203;SDS011;7185;51.854;6.622;2022-11-12T07:41:37;22.20;;;12.10;;
14203;SDS011;7185;51.854;6.622;2022-11-12T07:44:10;17.05;;;9.75;;
14203;SDS011;7185;51.854;6.622;2022-11-12T07:46:41;18.33;;;9.45;;
14203;SDS011;7185;51.854;6.622;2022-11-12T07:49:13;19.13;;;11.18;;
14203;SDS011;7185;51.854;6.622;2022-11-12T07:51:44;16.42;;;10.90;;
14203;SDS011;7185;51.854;6.622;2022-11-12T07:54:15;16.17;;;9.65;;
14203;SDS011;7185;51.854;6.622;2022-11-12T07:56:47;13.23;;;6.97;;
14203;SDS011;7185;51.854;6.622;2022-11-12T07:59:19;12.10;;;6.65;;
14203;SDS011;7185;51.854;6.622;2022-11-12T08:01:51;12.30;;;6.22;;
14203;SDS011;7185;51.854;6.622;2022-11-12T08:04:22;10.30;;;6.20;;
14203;SDS011;7185;51.854;6.622;2022-11-12T08:06:55;10.80;;;6.00;;
14203;SDS011;7185;51.854;6.622;2022-11-12T08:09:26;11.07;;;5.75;;
14203;SDS011;7185;51.854;6.622;2022-11-12T08:11:57;11.10;;;6.05;;
14203;SDS011;7185;51.854;6.622;2022-11-12T08:14:30;9.43;;;5.15;;
14203;SDS011;7185;51.854;6.622;2022-11-12T08:17:01;10.15;;;5.18;;
14203;SDS011;7185;51.854;6.622;2022-11-12T08:19:33;7.85;;;5.35;;
14203;SDS011;7185;51.854;6.622;2022-11-12T08:22:04;9.20;;;5.75;;
14203;SDS011;7185;51.854;6.622;2022-11-12T08:24:35;10.85;;;6.25;;
14203;SDS011;7185;51.854;6.622;2022-11-12T08:27:07;10.70;;;6.28;;
14203;SDS011;7185;51.854;6.622;2022-11-12T08:29:39;8.68;;;5.45;;
14203;SDS011;7185;51.854;6.622;2022-11-12T08:32:11;8.90;;;5.65;;
14203;SDS011;7185;51.854;6.622;2022-11-12T08:34:42;14.98;;;6.97;;
14203;SDS011;7185;51.854;6.622;2022-11-12T08:37:14;9.00;;;5.07;;
14203;SDS011;7185;51.854;6.622;2022-11-12T08:39:45;7.38;;;5.45;;
14203;SDS011;7185;51.854;6.622;2022-11-12T08:42:16;11.35;;;5.88;;
14203;SDS011;7185;51.854;6.622;2022-11-12T08:44:49;7.25;;;5.13;;
14203;SDS011;7185;51.854;6.622;2022-11-12T08:47:20;9.82;;;6.13;;
14203;SDS011;7185;51.854;6.622;2022-11-12T08:49:52;8.80;;;5.45;;
14203;SDS011;7185;51.854;6.622;2022-11-12T08:52:23;12.18;;;5.53;;
14203;SDS011;7185;51.854;6.622;2022-11-12T08:54:54;10.52;;;5.60;;
14203;SDS011;7185;51.854;6.622;2022-11-12T08:57:26;10.25;;;6.18;;
14203;SDS011;7185;51.854;6.622;2022-11-12T08:59:58;11.98;;;5.40;;
14203;SDS011;7185;51.854;6.622;2022-11-12T09:02:32;11.38;;;6.00;;
14203;SDS011;7185;51.854;6.622;2022-11-12T09:05:03;10.23;;;6.03;;
14203;SDS011;7185;51.854;6.622;2022-11-12T09:07:35;8.25;;;5.65;;
14203;SDS011;7185;51.854;6.622;2022-11-12T09:10:06;8.57;;;5.50;;
14203;SDS011;7185;51.854;6.622;2022-11-12T09:12:38;10.93;;;5.78;;
14203;SDS011;7185;51.854;6.622;2022-11-12T09:15:10;11.73;;;5.82;;
14203;SDS011;7185;51.854;6.622;2022-11-12T09:17:42;9.55;;;5.40;;
14203;SDS011;7185;51.854;6.622;2022-11-12T09:20:13;9.63;;;5.60;;
14203;SDS011;7185;51.854;6.622;2022-11-12T09:22:45;8.18;;;5.55;;
14203;SDS011;7185;51.854;6.622;2022-11-12T09:25:16;9.52;;;5.53;;
14203;SDS011;7185;51.854;6.622;2022-11-12T09:27:47;10.50;;;5.63;;
14203;SDS011;7185;51.854;6.622;2022-11-12T09:30:20;9.13;;;5.72;;
14203;SDS011;7185;51.854;6.622;2022-11-12T09:32:55;10.65;;;6.07;;
14203;SDS011;7185;51.854;6.622;2022-11-12T09:35:27;10.80;;;5.75;;
14203;SDS011;7185;51.854;6.622;2022-11-12T09:37:58;10.63;;;5.80;;
14203;SDS011;7185;51.854;6.622;2022-11-12T09:40:31;9.88;;;5.93;;
14203;SDS011;7185;51.854;6.622;2022-11-12T09:43:10;8.80;;;5.63;;
14203;SDS011;7185;51.854;6.622;2022-11-12T09:45:46;10.80;;;6.00;;
14203;SDS011;7185;51.854;6.622;2022-11-12T09:48:19;12.48;;;7.25;;
14203;SDS011;7185;51.854;6.622;2022-11-12T09:50:53;12.82;;;7.10;;
14203;SDS011;7185;51.854;6.622;2022-11-12T09:53:29;11.82;;;5.75;;
14203;SDS011;7185;51.854;6.622;2022-11-12T09:56:04;10.35;;;5.60;;
14203;SDS011;7185;51.854;6.622;2022-11-12T09:58:36;12.75;;;5.43;;
14203;SDS011;7185;51.854;6.622;2022-11-12T10:01:12;10.98;;;5.60;;
14203;SDS011;7185;51.854;6.622;2022-11-12T10:03:46;10.43;;;5.47;;
14203;SDS011;7185;51.854;6.622;2022-11-12T10:06:20;10.27;;;5.90;;
14203;SDS011;7185;51.854;6.622;2022-11-12T10:08:53;10.05;;;5.72;;
14203;SDS011;7185;51.854;6.622;2022-11-12T10:14:37;10.45;;;5.50;;
14203;SDS011;7185;51.854;6.622;2022-11-12T10:17:14;13.93;;;6.38;;
14203;SDS011;7185;51.854;6.622;2022-11-12T10:19:48;13.52;;;6.20;;
14203;SDS011;7185;51.854;6.622;2022-11-12T10:22:25;10.48;;;5.90;;
14203;SDS011;7185;51.854;6.622;2022-11-12T10:24:59;13.60;;;6.47;;
14203;SDS011;7185;51.854;6.622;2022-11-12T10:27:40;14.57;;;6.70;;
14203;SDS011;7185;51.854;6.622;2022-11-12T10:30:14;13.77;;;5.68;;
14203;SDS011;7185;51.854;6.622;2022-11-12T10:32:47;13.88;;;6.00;;
14203;SDS011;7185;51.854;6.622;2022-11-12T10:35:19;11.55;;;5.07;;
14203;SDS011;7185;51.854;6.622;2022-11-12T10:37:52;13.77;;;5.38;;
14203;SDS011;7185;51.854;6.622;2022-11-12T10:40:27;10.32;;;4.95;;
14203;SDS011;7185;51.854;6.622;2022-11-12T10:42:59;10.32;;;4.82;;
14203;SDS011;7185;51.854;6.622;2022-11-12T10:45:30;12.25;;;5.30;;
14203;SDS011;7185;51.854;6.622;2022-11-12T10:48:04;11.18;;;6.03;;
14203;SDS011;7185;51.854;6.622;2022-11-12T10:50:36;10.98;;;5.72;;
14203;SDS011;7185;51.854;6.622;2022-11-12T10:53:10;11.77;;;5.72;;
14203;SDS011;7185;51.854;6.622;2022-11-12T10:55:53;13.10;;;5.85;;
14203;SDS011;7185;51.854;6.622;2022-11-12T10:58:25;13.77;;;5.90;;
14203;SDS011;7185;51.854;6.622;2022-11-12T11:00:57;14.20;;;5.90;;
14203;SDS011;7185;51.854;6.622;2022-11-12T11:03:32;11.35;;;5.72;;
14203;SDS011;7185;51.854;6.622;2022-11-12T11:06:04;10.07;;;5.10;;
14203;SDS011;7185;51.854;6.622;2022-11-12T11:08:37;10.68;;;5.18;;
14203;SDS011;7185;51.854;6.622;2022-11-12T11:11:13;10.70;;;5.43;;
14203;SDS011;7185;51.854;6.622;2022-11-12T11:13:45;12.05;;;5.47;;
14203;SDS011;7185;51.854;6.622;2022-11-12T11:16:17;13.63;;;6.00;;
14203;SDS011;7185;51.854;6.622;2022-11-12T11:18:51;9.43;;;5.03;;
14203;SDS011;7185;51.854;6.622;2022-11-12T11:24:21;9.60;;;5.03;;
14203;SDS011;7185;51.854;6.622;2022-11-12T11:26:57;10.50;;;4.63;;
14203;SDS011;7185;51.854;6.622;2022-11-12T11:29:34;9.95;;;4.93;;
14203;SDS011;7185;51.854;6.622;2022-11-12T11:32:10;9.05;;;4.50;;
14203;SDS011;7185;51.854;6.622;2022-11-12T11:37:21;9.02;;;4.78;;
14203;SDS011;7185;51.854;6.622;2022-11-12T11:39:57;10.73;;;5.03;;
14203;SDS011;7185;51.854;6.622;2022-11-12T11:42:38;9.38;;;4.15;;
14203;SDS011;7185;51.854;6.622;2022-11-12T11:45:15;7.82;;;4.20;;
14203;SDS011;7185;51.854;6.622;2022-11-12T11:47:49;8.50;;;4.82;;
14203;SDS011;7185;51.854;6.622;2022-11-12T11:50:24;9.80;;;4.75;;
14203;SDS011;7185;51.854;6.622;2022-11-12T11:53:02;6.82;;;4.32;;
14203;SDS011;7185;51.854;6.622;2022-11-12T11:55:43;9.50;;;4.57;;
14203;SDS011;7185;51.854;6.622;2022-11-12T12:01:09;9.02;;;4.88;;
14203;SDS011;7185;51.854;6.622;2022-11-12T12:03:47;13.27;;;5.43;;
14203;SDS011;7185;51.854;6.622;2022-11-12T12:06:26;8.90;;;4.72;;
14203;SDS011;7185;51.854;6.622;2022-11-12T12:09:04;9.33;;;5.10;;
14203;SDS011;7185;51.854;6.622;2022-11-12T12:11:39;9.65;;;5.20;;
14203;SDS011;7185;51.854;6.622;2022-11-12T12:17:09;8.90;;;5.25;;
14203;SDS011;7185;51.854;6.622;2022-11-12T12:19:47;12.50;;;5.78;;
14203;SDS011;7185;51.854;6.622;2022-11-12T12:22:22;9.25;;;5.82;;
14203;SDS011;7185;51.854;6.622;2022-11-12T12:24:57;10.38;;;5.75;;
14203;SDS011;7185;51.854;6.622;2022-11-12T12:27:33;12.13;;;5.68;;
14203;SDS011;7185;51.854;6.622;2022-11-12T12:30:08;14.90;;;6.00;;
14203;SDS011;7185;51.854;6.622;2022-11-12T12:32:44;15.95;;;5.72;;
14203;SDS011;7185;51.854;6.622;2022-11-12T12:35:20;12.60;;;5.65;;
14203;SDS011;7185;51.854;6.622;2022-11-12T12:37:55;12.25;;;5.30;;
14203;SDS011;7185;51.854;6.622;2022-11-12T12:40:30;12.47;;;5.73;;
14203;SDS011;7185;51.854;6.622;2022-11-12T12:43:05;12.77;;;5.85;;
14203;SDS011;7185;51.854;6.622;2022-11-12T12:45:39;12.77;;;5.25;;
14203;SDS011;7185;51.854;6.622;2022-11-12T12:48:12;12.77;;;5.35;;
14203;SDS011;7185;51.854;6.622;2022-11-12T12:50:53;8.90;;;4.88;;
14203;SDS011;7185;51.854;6.622;2022-11-12T12:53:32;9.70;;;4.43;;
14203;SDS011;7185;51.854;6.622;2022-11-12T12:56:05;9.57;;;3.92;;
14203;SDS011;7185;51.854;6.622;2022-11-12T12:58:40;7.43;;;4.40;;
14203;SDS011;7185;51.854;6.622;2022-11-12T13:01:13;5.13;;;3.55;;
14203;SDS011;7185;51.854;6.622;2022-11-12T13:03:57;5.90;;;3.25;;
14203;SDS011;7185;51.854;6.622;2022-11-12T13:06:31;6.75;;;3.22;;
14203;SDS011;7185;51.854;6.622;2022-11-12T13:11:03;7.57;;;3.20;;
14203;SDS011;7185;51.854;6.622;2022-11-12T13:12:04;5.82;;;3.10;;
14203;SDS011;7185;51.854;6.622;2022-11-12T13:21:16;4.55;;;2.92;;
14203;SDS011;7185;51.854;6.622;2022-11-12T13:24:14;5.20;;;2.63;;
14203;SDS011;7185;51.854;6.622;2022-11-12T13:26:56;7.05;;;3.08;;
14203;SDS011;7185;51.854;6.622;2022-11-12T13:29:45;4.18;;;2.72;;
14203;SDS011;7185;51.854;6.622;2022-11-12T13:32:32;4.88;;;3.08;;
14203;SDS011;7185;51.854;6.622;2022-11-12T13:38:42;5.82;;;3.13;;
14203;SDS011;7185;51.854;6.622;2022-11-12T13:41:25;5.80;;;3.42;;
14203;SDS011;7185;51.854;6.622;2022-11-12T13:44:28;4.30;;;2.50;;
14203;SDS011;7185;51.854;6.622;2022-11-12T13:50:26;5.28;;;2.70;;
14203;SDS011;7185;51.854;6.622;2022-11-12T13:52:58;4.13;;;2.80;;
14203;SDS011;7185;51.854;6.622;2022-11-12T13:55:54;5.35;;;2.97;;
14203;SDS011;7185;51.854;6.622;2022-11-12T13:58:27;6.20;;;3.35;;
14203;SDS011;7185;51.854;6.622;2022-11-12T14:01:08;6.78;;;3.03;;
14203;SDS011;7185;51.854;6.622;2022-11-12T14:03:47;6.13;;;3.35;;
14203;SDS011;7185;51.854;6.622;2022-11-12T14:06:21;5.47;;;3.22;;
14203;SDS011;7185;51.854;6.622;2022-11-12T14:09:17;4.97;;;3.03;;
14203;SDS011;7185;51.854;6.622;2022-11-12T14:11:53;7.75;;;3.65;;
14203;SDS011;7185;51.854;6.622;2022-11-12T14:14:36;5.43;;;2.83;;
14203;SDS011;7185;51.854;6.622;2022-11-12T14:17:16;6.72;;;3.35;;
14203;SDS011;7185;51.854;6.622;2022-11-12T14:19:56;5.35;;;3.40;;
14203;SDS011;7185;51.854;6.622;2022-11-12T14:22:38;7.53;;;4.10;;
14203;SDS011;7185;51.854;6.622;2022-11-12T14:25:15;7.68;;;3.20;;
14203;SDS011;7185;51.854;6.622;2022-11-12T14:27:48;6.10;;;3.40;;
14203;SDS011;7185;51.854;6.622;2022-11-12T14:30:28;5.28;;;2.92;;
14203;SDS011;7185;51.854;6.622;2022-11-12T14:33:08;7.28;;;4.05;;
14203;SDS011;7185;51.854;6.622;2022-11-12T14:35:41;5.00;;;3.10;;
14203;SDS011;7185;51.854;6.622;2022-11-12T14:38:15;6.50;;;3.40;;
14203;SDS011;7185;51.854;6.622;2022-11-12T14:40:49;7.18;;;3.78;;
14203;SDS011;7185;51.854;6.622;2022-11-12T14:43:28;8.30;;;4.00;;
14203;SDS011;7185;51.854;6.622;2022-11-12T14:46:03;6.55;;;4.03;;
14203;SDS011;7185;51.854;6.622;2022-11-12T14:48:43;6.40;;;4.05;;
14203;SDS011;7185;51.854;6.622;2022-11-12T14:51:15;5.68;;;3.67;;
14203;SDS011;7185;51.854;6.622;2022-11-12T14:53:52;5.35;;;3.60;;
14203;SDS011;7185;51.854;6.622;2022-11-12T14:56:26;6.20;;;3.53;;
14203;SDS011;7185;51.854;6.622;2022-11-12T14:58:58;6.00;;;3.38;;
14203;SDS011;7185;51.854;6.622;2022-11-12T15:01:35;8.95;;;3.45;;
14203;SDS011;7185;51.854;6.622;2022-11-12T15:04:15;7.43;;;3.20;;
14203;SDS011;7185;51.854;6.622;2022-11-12T15:06:51;6.70;;;3.58;;
14203;SDS011;7185;51.854;6.622;2022-11-12T15:09:38;6.03;;;3.33;;
14203;SDS011;7185;51.854;6.622;2022-11-12T15:14:41;6.72;;;4.13;;
14203;SDS011;7185;51.854;6.622;2022-11-12T15:17:25;6.80;;;4.50;;
14203;SDS011;7185;51.854;6.622;2022-11-12T15:20:01;10.88;;;4.60;;
14203;SDS011;7185;51.854;6.622;2022-11-12T15:22:36;8.15;;;4.00;;
14203;SDS011;7185;51.854;6.622;2022-11-12T15:25:10;7.50;;;4.13;;
14203;SDS011;7185;51.854;6.622;2022-11-12T15:27:42;6.38;;;4.30;;
14203;SDS011;7185;51.854;6.622;2022-11-12T15:30:15;6.20;;;3.83;;
14203;SDS011;7185;51.854;6.622;2022-11-12T15:32:47;8.98;;;4.10;;
14203;SDS011;7185;51.854;6.622;2022-11-12T15:35:19;9.68;;;4.13;;
14203;SDS011;7185;51.854;6.622;2022-11-12T15:37:51;6.53;;;4.22;;
14203;SDS011;7185;51.854;6.622;2022-11-12T15:40:26;8.13;;;4.15;;
14203;SDS011;7185;51.854;6.622;2022-11-12T15:42:59;9.93;;;4.47;;
14203;SDS011;7185;51.854;6.622;2022-11-12T15:45:34;8.60;;;4.93;;
14203;SDS011;7185;51.854;6.622;2022-11-12T15:48:07;11.05;;;4.47;;
14203;SDS011;7185;51.854;6.622;2022-11-12T15:50:39;8.98;;;4.40;;
14203;SDS011;7185;51.854;6.622;2022-11-12T15:53:13;7.60;;;4.03;;
14203;SDS011;7185;51.854;6.622;2022-11-12T15:55:47;6.75;;;3.80;;
14203;SDS011;7185;51.854;6.622;2022-11-12T15:58:25;11.95;;;4.55;;
14203;SDS011;7185;51.854;6.622;2022-11-12T16:00:58;12.48;;;5.03;;
14203;SDS011;7185;51.854;6.622;2022-11-12T16:03:30;9.43;;;4.82;;